Time;durP1;ratioP1;P1;durP2;ratioP2;P2;SDS_P1;SDS_P2;PMS_P1;PMS_P2;Temp;Humidity;BMP_temperature;BMP_pressure;BME280_temperature;BME280_humidity;BME280_pressure;Samples;Min_cycle;Max_cycle;Signal;HPM_P1;HPM_P2
2022/01/20 00:01:10;;;;;;;12.05;2.50;;;3.90;99.90;;;;;;4942012;28;20110;-63
2022/01/20 00:03:37;;;;;;;7.05;2.10;;;3.80;99.90;;;;;;4918736;28;20491;-63
2022/01/20 00:28:26;;;;;;;1.05;0.90;;;3.60;99.90;;;;;;4948841;28;20134;-63
2022/01/20 00:33:33;;;;;;;2.13;1.10;;;3.50;99.90;;;;;;4943947;28;20062;-62
2022/01/20 00:38:37;;;;;;;6.22;3.10;;;3.50;99.90;;;;;;4945390;28;20023;-63
2022/01/20 00:41:02;;;;;;;1.85;1.20;;;3.50;99.90;;;;;;4948947;29;20381;-62
2022/01/20 00:43:28;;;;;;;16.92;3.63;;;3.50;99.90;;;;;;4947064;28;20166;-63
2022/01/20 00:45:54;;;;;;;1.92;1.73;;;3.50;99.90;;;;;;4933961;29;20043;-63
2022/01/20 00:48:20;;;;;;;3.88;1.95;;;3.40;99.90;;;;;;4947196;28;20038;-63
2022/01/20 00:50:46;;;;;;;4.82;1.50;;;3.40;99.90;;;;;;4948439;28;20567;-63
2022/01/20 00:53:12;;;;;;;4.00;2.75;;;3.40;99.90;;;;;;4948783;28;20106;-63
2022/01/20 00:55:39;;;;;;;5.53;2.13;;;3.50;99.90;;;;;;4947851;28;20027;-62
2022/01/20 00:58:05;;;;;;;3.28;2.15;;;3.40;99.90;;;;;;4947413;28;20020;-64
2022/01/20 01:00:31;;;;;;;3.97;1.13;;;3.40;99.90;;;;;;4948528;28;20782;-62
2022/01/20 01:02:56;;;;;;;1.52;1.42;;;3.50;99.90;;;;;;4946981;29;20031;-62
2022/01/20 01:05:22;;;;;;;3.65;1.45;;;3.50;99.90;;;;;;4951422;28;20042;-63
2022/01/20 01:07:50;;;;;;;4.68;1.42;;;3.60;99.90;;;;;;4924379;29;20040;-62
2022/01/20 01:10:22;;;;;;;1.88;1.20;;;3.60;99.90;;;;;;4946345;28;20019;-62
2022/01/20 01:15:26;;;;;;;7.68;2.10;;;3.80;99.90;;;;;;4947956;28;20036;-63
2022/01/20 01:21:28;;;;;;;0.70;0.70;;;3.80;99.90;;;;;;4944094;28;20042;-62
2022/01/20 01:23:36;;;;;;;15.93;2.40;;;3.80;99.90;;;;;;4946328;28;20476;-63
2022/01/20 01:26:07;;;;;;;2.47;1.77;;;3.80;99.90;;;;;;4945942;28;20043;-62
2022/01/20 01:28:33;;;;;;;18.13;3.35;;;3.80;99.90;;;;;;4949235;28;20051;-62
2022/01/20 01:37:03;;;;;;;5.47;2.72;;;3.80;99.90;;;;;;4947407;28;20205;-62
2022/01/20 01:39:29;;;;;;;7.10;1.80;;;3.90;99.90;;;;;;4943503;29;20023;-63
2022/01/20 01:41:56;;;;;;;4.47;2.95;;;3.80;99.90;;;;;;4944316;28;20082;-62
2022/01/20 01:44:26;;;;;;;2.80;1.10;;;3.90;99.90;;;;;;4929520;29;20117;-63
2022/01/20 01:46:53;;;;;;;1.17;1.08;;;3.90;99.90;;;;;;4946109;28;20106;-63
2022/01/20 01:49:19;;;;;;;2.63;1.42;;;4.00;99.90;;;;;;4949861;28;20034;-63
2022/01/20 01:51:45;;;;;;;7.35;1.77;;;4.00;99.90;;;;;;4948123;28;20090;-62
2022/01/20 01:54:13;;;;;;;4.10;2.05;;;4.00;99.90;;;;;;4948754;28;20396;-63
2022/01/20 01:56:40;;;;;;;1.73;1.27;;;4.10;99.90;;;;;;4944088;28;20023;-63
2022/01/20 01:59:06;;;;;;;6.88;3.78;;;4.10;99.90;;;;;;4943391;28;20028;-62
2022/01/20 02:01:35;;;;;;;9.75;2.55;;;4.10;99.90;;;;;;4947129;28;20037;-62
2022/01/20 02:04:12;;;;;;;11.50;2.00;;;4.10;99.90;;;;;;4948069;28;20031;-62
2022/01/20 02:19:56;;;;;;;14.70;3.15;;;4.20;99.90;;;;;;4948344;28;20382;-62
2022/01/20 02:22:22;;;;;;;5.00;2.08;;;4.20;99.90;;;;;;4948273;28;20019;-62
2022/01/20 02:24:48;;;;;;;7.88;2.47;;;4.20;99.90;;;;;;4945247;28;20118;-62
2022/01/20 02:27:13;;;;;;;6.72;3.00;;;4.10;99.90;;;;;;4947413;28;20146;-62
2022/01/20 02:29:40;;;;;;;6.78;1.23;;;4.20;99.90;;;;;;4945632;28;20027;-62
2022/01/20 02:32:06;;;;;;;1.70;1.42;;;4.20;99.90;;;;;;4942850;28;20030;-63
2022/01/20 02:34:32;;;;;;;6.32;2.05;;;4.20;99.90;;;;;;4946347;28;20027;-62
2022/01/20 02:37:00;;;;;;;4.32;1.48;;;4.20;99.90;;;;;;4948239;28;20027;-63
2022/01/20 02:44:56;;;;;;;10.85;5.00;;;4.10;99.90;;;;;;4943017;28;20085;-62
2022/01/20 02:47:29;;;;;;;1.95;0.98;;;4.10;99.90;;;;;;4943360;28;20027;-63
2022/01/20 02:49:55;;;;;;;1.70;1.13;;;4.20;99.90;;;;;;4948112;28;20032;-62
2022/01/20 02:52:23;;;;;;;1.35;1.02;;;4.20;99.90;;;;;;4946668;28;20027;-62
2022/01/20 02:54:50;;;;;;;31.98;2.25;;;4.20;99.90;;;;;;4932776;28;20118;-62
2022/01/20 02:57:16;;;;;;;1.67;0.95;;;4.20;99.90;;;;;;4940507;28;20031;-63
2022/01/20 02:59:42;;;;;;;0.95;0.85;;;4.10;99.90;;;;;;4946275;28;20468;-63
2022/01/20 03:02:09;;;;;;;2.30;1.55;;;4.10;99.90;;;;;;4941433;28;20086;-62
2022/01/20 03:04:36;;;;;;;11.35;1.63;;;4.10;99.90;;;;;;4945004;28;20032;-63
2022/01/20 03:07:02;;;;;;;4.10;1.27;;;4.10;99.90;;;;;;4945350;28;20027;-63
2022/01/20 03:09:28;;;;;;;1.00;0.82;;;4.20;99.90;;;;;;4943405;28;20503;-63
2022/01/20 03:11:53;;;;;;;1.25;1.13;;;4.10;99.90;;;;;;4947446;28;20031;-62
2022/01/20 03:14:19;;;;;;;3.85;1.63;;;4.10;99.90;;;;;;4947063;28;20055;-63
2022/01/20 03:16:46;;;;;;;0.70;0.70;;;4.10;99.90;;;;;;4950233;28;20110;-62
2022/01/20 03:19:13;;;;;;;2.50;1.35;;;4.20;99.90;;;;;;4945118;28;20086;-62
2022/01/20 03:21:40;;;;;;;4.60;1.67;;;4.20;99.90;;;;;;4947058;28;20019;-62
2022/01/20 03:24:06;;;;;;;1.30;1.02;;;4.20;99.90;;;;;;4947952;28;20035;-62
2022/01/20 03:26:33;;;;;;;1.25;0.90;;;4.10;99.90;;;;;;4942925;28;20098;-62
2022/01/20 03:28:58;;;;;;;2.67;2.05;;;4.10;99.90;;;;;;4945550;28;20050;-62
2022/01/20 03:31:25;;;;;;;3.83;1.75;;;4.10;99.90;;;;;;4942197;28;20032;-62
2022/01/20 03:33:50;;;;;;;7.47;1.85;;;4.00;99.90;;;;;;4944301;28;20467;-63
2022/01/20 03:36:16;;;;;;;2.15;1.75;;;4.00;99.90;;;;;;4945127;28;20027;-63
2022/01/20 03:38:42;;;;;;;0.98;0.85;;;3.90;99.90;;;;;;4947088;28;20365;-63
2022/01/20 03:41:08;;;;;;;0.70;0.70;;;3.80;99.90;;;;;;4950261;28;20031;-63
2022/01/20 03:43:33;;;;;;;5.32;1.63;;;3.80;99.90;;;;;;4939651;28;20042;-63
2022/01/20 03:46:01;;;;;;;2.50;1.10;;;3.80;99.90;;;;;;4946952;28;20078;-63
2022/01/20 03:48:28;;;;;;;3.60;2.25;;;3.90;99.90;;;;;;4942744;28;20428;-63
2022/01/20 03:51:01;;;;;;;2.85;1.20;;;3.90;99.90;;;;;;4925137;28;20062;-62
2022/01/20 03:53:38;;;;;;;0.70;0.70;;;3.80;99.90;;;;;;4946253;28;20135;-62
2022/01/20 03:56:05;;;;;;;2.47;1.48;;;3.90;99.90;;;;;;4950338;28;20412;-63
2022/01/20 03:58:30;;;;;;;2.22;1.30;;;3.90;99.90;;;;;;4946831;28;20461;-62
2022/01/20 04:00:56;;;;;;;17.05;2.15;;;4.00;99.90;;;;;;4950560;29;20079;-63
2022/01/20 04:03:23;;;;;;;1.30;0.88;;;4.00;99.90;;;;;;4948155;28;20077;-62
2022/01/20 04:05:58;;;;;;;3.22;2.20;;;4.00;99.90;;;;;;4949850;28;20035;-62
2022/01/20 04:08:45;;;;;;;5.15;1.88;;;3.90;99.90;;;;;;4949028;28;20029;-62
2022/01/20 04:11:13;;;;;;;8.20;1.92;;;3.90;99.90;;;;;;4949706;28;20075;-63
2022/01/20 04:13:39;;;;;;;2.70;1.73;;;3.80;99.90;;;;;;4946410;28;20035;-62
2022/01/20 04:16:17;;;;;;;4.20;1.67;;;3.80;99.90;;;;;;4948193;28;20441;-63
2022/01/20 04:18:52;;;;;;;1.30;0.90;;;3.80;99.90;;;;;;4949471;28;20432;-63
2022/01/20 04:21:22;;;;;;;0.95;0.90;;;3.90;99.90;;;;;;4949147;28;20027;-63
2022/01/20 04:23:48;;;;;;;1.58;1.25;;;4.00;99.90;;;;;;4931524;29;20061;-63
2022/01/20 04:26:14;;;;;;;1.30;0.80;;;4.00;99.90;;;;;;4951112;29;20035;-63
2022/01/20 04:28:40;;;;;;;9.45;1.88;;;4.00;99.90;;;;;;4952486;28;20071;-63
2022/01/20 04:31:05;;;;;;;7.13;1.70;;;4.00;99.90;;;;;;4950569;28;20035;-63
2022/01/20 04:33:31;;;;;;;2.83;1.15;;;4.00;99.90;;;;;;4945321;28;20094;-63
2022/01/20 04:35:57;;;;;;;1.33;1.02;;;4.00;99.90;;;;;;4950165;28;20042;-63
2022/01/20 04:38:22;;;;;;;8.30;1.33;;;4.00;99.90;;;;;;4940613;28;20540;-62
2022/01/20 04:40:48;;;;;;;4.97;1.73;;;3.90;99.90;;;;;;4944918;28;20043;-62
2022/01/20 04:43:14;;;;;;;7.97;1.88;;;3.80;99.90;;;;;;4944400;28;20027;-63
2022/01/20 04:45:47;;;;;;;7.38;2.28;;;3.90;99.90;;;;;;4949375;28;20130;-63
2022/01/20 04:48:23;;;;;;;9.60;1.83;;;3.80;99.90;;;;;;4950347;28;20023;-63
2022/01/20 04:59:01;;;;;;;12.32;1.23;;;3.80;99.90;;;;;;4945060;28;20588;-63
2022/01/20 05:01:27;;;;;;;9.75;2.97;;;3.80;99.90;;;;;;4944459;28;20117;-63
2022/01/20 05:03:55;;;;;;;5.22;2.20;;;3.90;99.90;;;;;;4948003;29;20086;-62
2022/01/20 05:06:20;;;;;;;9.95;2.83;;;3.90;99.90;;;;;;4947201;28;20028;-64
2022/01/20 05:08:46;;;;;;;2.60;1.10;;;3.80;99.90;;;;;;4955193;28;20035;-63
2022/01/20 05:11:13;;;;;;;4.13;1.63;;;3.90;99.90;;;;;;4961027;28;20030;-63
2022/01/20 05:13:40;;;;;;;4.97;1.67;;;3.80;99.90;;;;;;4956754;28;20392;-63
2022/01/20 05:16:06;;;;;;;8.35;3.20;;;3.80;99.90;;;;;;4960620;28;20531;-62
2022/01/20 05:18:32;;;;;;;3.40;1.58;;;3.80;99.90;;;;;;4964385;28;20106;-62
2022/01/20 05:20:58;;;;;;;8.35;1.17;;;3.80;99.90;;;;;;4963893;28;20046;-62
2022/01/20 05:23:24;;;;;;;4.05;2.13;;;3.70;99.90;;;;;;4954160;28;20027;-62
2022/01/20 05:25:49;;;;;;;4.10;2.58;;;3.70;99.90;;;;;;4962990;28;20039;-63
2022/01/20 05:28:15;;;;;;;5.53;2.30;;;3.70;99.90;;;;;;4958381;28;20046;-62
2022/01/20 05:30:41;;;;;;;2.05;1.30;;;3.70;99.90;;;;;;4959000;28;20474;-62
2022/01/20 05:33:08;;;;;;;5.10;2.00;;;3.70;99.90;;;;;;4959550;28;20031;-62
2022/01/20 05:35:34;;;;;;;12.10;2.78;;;3.70;99.90;;;;;;4954737;28;20023;-62
2022/01/20 05:37:59;;;;;;;10.18;2.00;;;3.70;99.90;;;;;;4962291;28;20387;-62
2022/01/20 05:40:26;;;;;;;4.43;1.70;;;3.70;99.90;;;;;;4962932;28;20031;-62
2022/01/20 05:42:52;;;;;;;2.05;1.35;;;3.60;99.90;;;;;;4962818;28;20023;-63
2022/01/20 05:45:17;;;;;;;1.13;1.02;;;3.60;99.90;;;;;;4957430;28;20623;-63
2022/01/20 05:47:48;;;;;;;1.70;1.15;;;3.60;99.90;;;;;;4953852;28;20042;-63
2022/01/20 05:50:17;;;;;;;2.78;2.33;;;3.60;99.90;;;;;;4945903;28;20023;-64
2022/01/20 05:52:44;;;;;;;1.30;1.02;;;3.60;99.90;;;;;;4959360;28;20031;-65
2022/01/20 05:55:12;;;;;;;5.18;1.58;;;3.50;99.90;;;;;;4960078;28;20027;-64
2022/01/20 05:57:38;;;;;;;1.95;1.00;;;3.30;99.90;;;;;;4965980;28;20468;-64
2022/01/20 06:00:06;;;;;;;2.85;1.23;;;3.70;99.90;;;;;;4950624;28;20039;-64
2022/01/20 06:03:36;;;;;;;1.17;0.93;;;3.00;99.90;;;;;;4932552;28;20031;-63
2022/01/20 06:05:20;;;;;;;6.70;1.40;;;3.00;99.90;;;;;;4944909;28;20035;-64
2022/01/20 06:07:46;;;;;;;1.25;1.05;;;3.00;99.90;;;;;;4947032;28;20038;-64
2022/01/20 06:10:11;;;;;;;3.40;1.63;;;3.00;99.90;;;;;;4951676;28;20555;-64
2022/01/20 06:12:37;;;;;;;7.53;1.77;;;3.10;99.90;;;;;;4947077;28;20587;-64
2022/01/20 06:15:05;;;;;;;0.70;0.70;;;3.00;99.90;;;;;;4946970;28;20438;-64
2022/01/20 06:17:34;;;;;;;1.35;0.82;;;3.00;99.90;;;;;;4949650;28;20032;-64
2022/01/20 06:19:59;;;;;;;1.25;1.02;;;3.00;99.90;;;;;;4952414;28;20023;-64
2022/01/20 06:22:25;;;;;;;1.67;1.52;;;3.10;99.90;;;;;;4943536;28;20042;-64
2022/01/20 06:24:50;;;;;;;3.08;1.02;;;3.10;99.90;;;;;;4948789;28;20107;-65
2022/01/20 06:27:16;;;;;;;1.48;1.00;;;3.10;99.90;;;;;;4942589;28;20051;-65
2022/01/20 06:29:42;;;;;;;2.38;1.50;;;3.10;99.90;;;;;;4947892;28;20046;-65
2022/01/20 06:32:08;;;;;;;4.22;1.55;;;3.10;99.90;;;;;;4951926;28;20023;-66
2022/01/20 06:34:34;;;;;;;0.77;0.73;;;3.00;99.90;;;;;;4951958;28;20035;-65
2022/01/20 06:37:00;;;;;;;2.85;1.95;;;3.00;99.90;;;;;;4951230;28;20027;-65
2022/01/20 06:39:25;;;;;;;0.70;0.70;;;2.90;99.90;;;;;;4943967;28;20489;-66
2022/01/20 06:41:51;;;;;;;0.90;0.80;;;2.90;99.90;;;;;;4944472;28;20496;-64
2022/01/20 06:44:18;;;;;;;6.47;1.52;;;3.10;99.90;;;;;;4954489;28;20127;-64
2022/01/20 06:46:45;;;;;;;1.70;1.05;;;3.00;99.90;;;;;;4930581;28;20032;-64
2022/01/20 06:49:10;;;;;;;9.73;1.88;;;3.00;99.90;;;;;;4947918;28;20027;-62
2022/01/20 06:51:37;;;;;;;18.52;2.13;;;3.00;99.90;;;;;;4949851;28;20123;-63
2022/01/20 06:54:03;;;;;;;12.65;1.02;;;3.00;99.90;;;;;;4950345;28;20027;-63
2022/01/20 06:56:29;;;;;;;0.85;0.85;;;3.00;99.90;;;;;;4950695;28;20023;-63
2022/01/20 06:58:55;;;;;;;1.80;1.50;;;2.80;99.90;;;;;;4949202;28;20031;-64
2022/01/20 07:01:20;;;;;;;1.00;0.90;;;2.70;99.90;;;;;;4945429;28;20037;-64
2022/01/20 07:03:46;;;;;;;1.70;1.60;;;2.70;99.90;;;;;;4947952;28;20039;-63
2022/01/20 07:06:12;;;;;;;0.75;0.75;;;2.70;99.90;;;;;;4943184;28;20059;-64
2022/01/20 07:08:37;;;;;;;1.55;1.45;;;2.70;99.90;;;;;;4947676;28;20074;-63
2022/01/20 07:11:03;;;;;;;0.70;0.70;;;2.70;99.90;;;;;;4943960;29;20106;-63
2022/01/20 07:13:29;;;;;;;2.65;1.15;;;2.70;99.90;;;;;;4945114;28;20591;-64
2022/01/20 07:15:54;;;;;;;1.45;1.33;;;2.80;99.90;;;;;;4948383;28;20023;-63
2022/01/20 07:18:20;;;;;;;4.72;3.63;;;2.80;99.90;;;;;;4944362;28;20042;-64
2022/01/20 07:20:46;;;;;;;1.35;1.20;;;2.80;99.90;;;;;;4948078;28;20038;-63
2022/01/20 07:23:11;;;;;;;1.27;1.00;;;2.90;99.90;;;;;;4943533;28;20034;-63
2022/01/20 07:25:37;;;;;;;4.47;1.25;;;2.80;99.90;;;;;;4949952;28;20066;-63
2022/01/20 07:28:03;;;;;;;1.38;1.27;;;2.90;99.90;;;;;;4936935;28;20070;-63
2022/01/20 07:30:29;;;;;;;1.10;1.00;;;2.80;99.90;;;;;;4952696;28;20062;-63
2022/01/20 07:32:54;;;;;;;3.30;1.40;;;2.80;99.90;;;;;;4953087;28;20039;-63
2022/01/20 07:35:20;;;;;;;0.70;0.70;;;2.80;99.90;;;;;;4947603;28;20032;-63
2022/01/20 07:37:47;;;;;;;0.70;0.70;;;2.80;99.90;;;;;;4945693;28;20050;-63
2022/01/20 07:40:12;;;;;;;0.80;0.80;;;2.80;99.90;;;;;;4951733;28;20027;-63
2022/01/20 07:42:38;;;;;;;0.80;0.80;;;2.80;99.90;;;;;;4947093;29;20031;-63
2022/01/20 07:45:04;;;;;;;6.13;1.17;;;2.80;99.90;;;;;;4949494;28;20031;-63
2022/01/20 07:47:30;;;;;;;2.92;1.05;;;2.70;99.90;;;;;;4950640;28;20031;-64
2022/01/20 07:49:55;;;;;;;1.08;0.90;;;2.70;99.90;;;;;;4952060;28;20494;-64
2022/01/20 07:52:21;;;;;;;0.82;0.82;;;2.80;99.90;;;;;;4946882;28;20035;-63
2022/01/20 07:54:47;;;;;;;4.72;1.33;;;2.80;99.90;;;;;;4947302;28;20039;-63
2022/01/20 07:57:12;;;;;;;8.23;1.48;;;2.90;99.90;;;;;;4949117;28;20054;-63
2022/01/20 07:59:38;;;;;;;12.30;1.92;;;2.90;99.90;;;;;;4949029;28;20030;-63
2022/01/20 08:02:04;;;;;;;5.68;0.80;;;2.90;99.90;;;;;;4948299;28;20487;-63
2022/01/20 08:04:29;;;;;;;1.85;1.00;;;2.80;99.90;;;;;;4950598;28;20456;-63
2022/01/20 08:06:55;;;;;;;0.60;0.60;;;2.60;99.90;;;;;;4950763;28;20110;-64
2022/01/20 08:09:22;;;;;;;2.33;2.13;;;2.40;99.90;;;;;;4953422;28;20110;-64
2022/01/20 08:11:48;;;;;;;2.47;0.80;;;2.40;99.90;;;;;;4952340;28;20468;-64
2022/01/20 08:14:13;;;;;;;1.05;0.95;;;2.40;99.90;;;;;;4950618;28;20107;-64
2022/01/20 08:16:39;;;;;;;0.68;0.68;;;2.30;99.90;;;;;;4951878;28;20048;-63
2022/01/20 08:19:05;;;;;;;1.38;1.05;;;2.30;99.90;;;;;;4951677;28;20102;-64
2022/01/20 08:21:31;;;;;;;0.70;0.70;;;2.30;99.90;;;;;;4949020;28;20016;-64
2022/01/20 08:23:56;;;;;;;0.80;0.80;;;2.20;99.90;;;;;;4946628;28;20039;-63
2022/01/20 08:26:22;;;;;;;0.60;0.60;;;2.20;99.90;;;;;;4948704;28;20110;-63
2022/01/20 08:28:47;;;;;;;2.70;1.35;;;2.20;99.90;;;;;;4951610;28;20137;-63
2022/01/20 08:31:13;;;;;;;1.15;0.90;;;2.30;99.90;;;;;;4944612;28;20083;-64
2022/01/20 08:33:39;;;;;;;0.70;0.70;;;2.30;99.90;;;;;;4949367;28;20023;-63
2022/01/20 08:36:05;;;;;;;1.83;1.38;;;2.30;99.90;;;;;;4950588;28;20090;-63
2022/01/20 08:38:31;;;;;;;1.30;1.17;;;2.30;99.90;;;;;;4946025;28;20127;-64
2022/01/20 08:40:56;;;;;;;0.70;0.70;;;2.50;99.90;;;;;;4947684;28;20529;-63
2022/01/20 08:43:22;;;;;;;1.80;0.85;;;2.60;99.90;;;;;;4946175;28;20036;-64
2022/01/20 08:45:48;;;;;;;2.63;2.20;;;2.80;99.90;;;;;;4949824;28;20090;-63
2022/01/20 08:48:14;;;;;;;4.10;1.40;;;2.90;99.90;;;;;;4947291;29;20480;-63
2022/01/20 08:50:43;;;;;;;1.65;1.35;;;2.90;99.90;;;;;;4946297;28;20090;-63
2022/01/20 08:53:09;;;;;;;2.78;1.88;;;3.00;99.90;;;;;;4944053;28;20027;-64
2022/01/20 08:55:36;;;;;;;3.42;2.17;;;3.00;99.90;;;;;;4943714;28;20400;-63
2022/01/20 08:58:03;;;;;;;1.40;0.90;;;3.10;99.90;;;;;;4946949;28;20082;-64
2022/01/20 09:00:31;;;;;;;0.75;0.75;;;3.10;99.90;;;;;;4952145;28;20095;-64
2022/01/20 09:02:58;;;;;;;0.68;0.68;;;3.10;99.90;;;;;;4948144;28;20029;-63
2022/01/20 09:05:24;;;;;;;1.40;1.30;;;3.20;99.90;;;;;;4950198;29;20375;-63
2022/01/20 09:07:50;;;;;;;2.10;1.08;;;3.20;99.90;;;;;;4943516;29;20082;-63
2022/01/20 09:10:20;;;;;;;4.00;2.28;;;3.20;99.90;;;;;;4949756;28;20015;-63
2022/01/20 09:15:35;;;;;;;25.20;1.45;;;3.10;99.90;;;;;;4948073;28;20038;-63
2022/01/20 09:18:04;;;;;;;7.45;1.48;;;3.10;99.90;;;;;;4948176;29;20467;-62
2022/01/20 09:20:31;;;;;;;0.75;0.75;;;3.10;99.90;;;;;;4950626;28;20456;-63
2022/01/20 09:22:58;;;;;;;0.80;0.80;;;3.10;99.90;;;;;;4944622;28;20043;-63
2022/01/20 09:25:24;;;;;;;3.15;1.60;;;2.90;99.90;;;;;;4947560;28;20054;-62
2022/01/20 09:27:51;;;;;;;7.05;2.35;;;3.00;99.90;;;;;;4944337;28;20062;-63
2022/01/20 09:30:19;;;;;;;1.10;0.93;;;3.10;99.90;;;;;;4945660;28;20060;-63
2022/01/20 09:32:58;;;;;;;8.35;1.45;;;3.10;99.90;;;;;;4943998;28;20051;-63
2022/01/20 09:35:28;;;;;;;17.05;1.15;;;3.10;99.90;;;;;;4949437;28;20476;-63
2022/01/20 09:37:53;;;;;;;0.70;0.70;;;3.40;99.90;;;;;;4930822;29;20030;-63
2022/01/20 09:40:19;;;;;;;8.50;1.30;;;3.50;99.90;;;;;;4941707;28;20031;-63
2022/01/20 09:42:45;;;;;;;2.25;1.50;;;3.70;99.90;;;;;;4945700;28;20033;-64
2022/01/20 09:45:11;;;;;;;0.60;0.60;;;3.80;99.90;;;;;;4946992;28;20123;-63
2022/01/20 09:47:37;;;;;;;1.85;1.55;;;4.20;99.90;;;;;;4944047;28;20388;-63
2022/01/20 09:50:04;;;;;;;9.57;1.42;;;4.60;99.90;;;;;;4944202;28;20114;-63
2022/01/20 09:52:30;;;;;;;0.80;0.80;;;4.00;99.90;;;;;;4930462;28;20027;-63
2022/01/20 09:54:56;;;;;;;3.78;1.27;;;;;;;;;;4947303;28;20031;-63
2022/01/20 09:57:22;;;;;;;1.58;1.15;;;3.30;99.90;;;;;;4944476;28;20028;-62
2022/01/20 09:59:50;;;;;;;8.40;1.00;;;3.60;99.90;;;;;;4949422;28;20031;-63
2022/01/20 10:02:18;;;;;;;0.70;0.70;;;4.20;99.90;;;;;;4943804;28;20771;-63
2022/01/20 10:04:45;;;;;;;2.00;1.00;;;4.80;99.90;;;;;;4946759;28;20031;-62
2022/01/20 10:07:13;;;;;;;3.13;1.23;;;4.70;99.90;;;;;;4947818;28;20031;-63
2022/01/20 10:09:48;;;;;;;2.38;1.00;;;4.60;99.90;;;;;;4947285;28;20436;-63
2022/01/20 10:12:16;;;;;;;0.70;0.70;;;4.80;99.90;;;;;;4950100;28;20031;-63
2022/01/20 10:14:50;;;;;;;3.85;1.60;;;4.70;99.90;;;;;;4927454;29;20122;-63
2022/01/20 10:17:20;;;;;;;2.42;1.13;;;4.70;99.90;;;;;;4947016;28;20091;-63
2022/01/20 10:19:51;;;;;;;0.88;0.80;;;4.30;99.90;;;;;;4921142;28;20024;-63
2022/01/20 10:22:17;;;;;;;;;;;3.80;99.90;;;;;;4946358;28;20030;-63
2022/01/20 10:25:04;;;;;;;1.75;1.05;;;3.50;99.90;;;;;;4947831;28;19914;-64
2022/01/20 10:27:34;;;;;;;0.70;0.70;;;3.40;99.90;;;;;;4947860;28;20031;-63
2022/01/20 10:30:08;;;;;;;1.92;1.30;;;3.40;99.90;;;;;;4950353;28;20069;-63
2022/01/20 10:32:42;;;;;;;4.53;2.85;;;3.30;99.90;;;;;;4949692;28;20031;-64
2022/01/20 10:35:10;;;;;;;1.08;0.80;;;3.30;99.90;;;;;;4946143;28;20082;-63
2022/01/20 10:37:37;;;;;;;1.30;0.90;;;3.50;99.90;;;;;;4949508;28;20019;-63
2022/01/20 10:40:16;;;;;;;1.35;0.77;;;3.70;99.90;;;;;;4948987;28;20046;-64
2022/01/20 10:42:45;;;;;;;0.98;0.98;;;3.80;99.90;;;;;;4948515;28;20027;-63
2022/01/20 10:45:25;;;;;;;10.48;1.20;;;3.90;99.90;;;;;;4935804;28;20055;-63
2022/01/20 10:48:00;;;;;;;1.75;0.95;;;3.90;99.90;;;;;;4944334;28;20042;-63
2022/01/20 10:50:29;;;;;;;2.88;1.10;;;3.90;99.90;;;;;;4947380;28;20083;-63
2022/01/20 10:52:55;;;;;;;0.85;0.82;;;3.80;99.90;;;;;;4946163;28;20039;-63
2022/01/20 10:55:27;;;;;;;1.77;1.02;;;3.90;99.90;;;;;;4942770;28;20185;-63
2022/01/20 10:57:55;;;;;;;1.55;1.45;;;3.90;99.90;;;;;;4948765;28;20023;-63
2022/01/20 11:00:23;;;;;;;0.75;0.75;;;3.80;99.90;;;;;;4943613;28;20041;-63
2022/01/20 11:02:54;;;;;;;0.80;0.80;;;3.90;99.90;;;;;;4939517;28;20062;-62
2022/01/20 11:05:20;;;;;;;1.75;0.90;;;4.00;99.90;;;;;;4948786;28;20095;-63
2022/01/20 11:07:47;;;;;;;2.97;1.20;;;4.30;99.90;;;;;;4949738;28;20032;-63
2022/01/20 11:10:13;;;;;;;2.78;1.88;;;4.50;99.90;;;;;;4950642;28;20484;-63
2022/01/20 11:12:39;;;;;;;0.80;0.80;;;4.50;99.90;;;;;;4946118;28;20051;-63
2022/01/20 11:15:08;;;;;;;0.85;0.82;;;4.40;99.90;;;;;;4931930;29;20479;-62
2022/01/20 11:17:35;;;;;;;0.82;0.75;;;4.20;99.90;;;;;;4944048;28;20027;-62
2022/01/20 11:20:05;;;;;;;1.85;1.00;;;4.10;99.90;;;;;;4944113;28;20032;-62
2022/01/20 11:22:31;;;;;;;;;;;4.10;99.90;;;;;;4951336;28;20500;-63
2022/01/20 11:25:00;;;;;;;4.03;1.70;;;3.90;99.90;;;;;;4946710;28;19915;-63
2022/01/20 11:27:40;;;;;;;5.03;2.10;;;3.80;99.90;;;;;;4948623;28;20543;-63
2022/01/20 11:30:26;;;;;;;0.80;0.80;;;3.90;99.90;;;;;;4952220;28;20028;-63
2022/01/20 11:33:18;;;;;;;2.85;1.02;;;4.40;99.90;;;;;;4938807;28;20505;-63
2022/01/20 11:35:51;;;;;;;4.25;1.20;;;4.70;99.90;;;;;;4945286;28;20073;-63
2022/01/20 11:38:19;;;;;;;1.42;1.05;;;4.80;99.90;;;;;;4939714;28;20114;-63
2022/01/20 11:41:00;;;;;;;0.75;0.70;;;4.80;99.90;;;;;;4928843;28;20039;-63
2022/01/20 11:43:39;;;;;;;6.30;1.45;;;4.60;99.90;;;;;;4942400;28;20022;-62
2022/01/20 11:46:13;;;;;;;4.03;1.55;;;4.50;99.90;;;;;;4944740;28;20031;-63
2022/01/20 11:48:50;;;;;;;0.70;0.70;;;4.10;99.90;;;;;;4946440;28;20472;-63
2022/01/20 11:51:18;;;;;;;4.32;1.00;;;4.20;99.90;;;;;;4946196;28;20042;-63
2022/01/20 11:54:01;;;;;;;5.60;1.50;;;4.00;99.90;;;;;;4944009;28;20015;-63
2022/01/20 11:56:35;;;;;;;3.42;1.13;;;4.00;99.90;;;;;;4941963;28;20020;-64
2022/01/20 11:59:04;;;;;;;5.47;2.80;;;3.90;99.90;;;;;;4944017;28;20038;-64
2022/01/20 12:01:30;;;;;;;1.95;1.00;;;3.80;99.90;;;;;;4943920;28;20042;-63
2022/01/20 12:03:57;;;;;;;1.75;0.95;;;3.90;99.90;;;;;;4948086;28;20058;-63
2022/01/20 12:06:25;;;;;;;0.70;0.70;;;3.90;99.90;;;;;;4946065;28;20034;-63
2022/01/20 12:09:00;;;;;;;1.10;0.82;;;3.90;99.90;;;;;;4944567;28;20399;-63
2022/01/20 12:11:47;;;;;;;3.72;0.95;;;3.90;99.90;;;;;;4941952;28;20031;-64
2022/01/20 12:14:24;;;;;;;33.85;1.58;;;3.90;99.90;;;;;;4949374;28;20534;-65
2022/01/20 12:16:50;;;;;;;0.70;0.70;;;4.00;99.90;;;;;;4950235;28;20114;-65
2022/01/20 12:19:15;;;;;;;1.13;1.00;;;4.00;99.90;;;;;;4953060;28;20110;-64
2022/01/20 12:21:49;;;;;;;1.75;1.23;;;4.20;99.90;;;;;;4939782;28;20024;-64
2022/01/20 12:24:14;;;;;;;11.82;1.15;;;4.10;99.90;;;;;;4940608;29;20596;-64
2022/01/20 12:26:40;;;;;;;8.68;0.98;;;4.10;99.90;;;;;;4950555;28;20044;-64
2022/01/20 12:29:09;;;;;;;0.85;0.80;;;4.10;99.90;;;;;;4953029;28;20071;-64
2022/01/20 12:31:56;;;;;;;0.80;0.80;;;4.10;99.90;;;;;;4950746;28;20031;-63
2022/01/20 12:34:21;;;;;;;1.65;1.17;;;4.10;99.90;;;;;;4944177;28;20027;-64
2022/01/20 12:36:55;;;;;;;3.40;0.90;;;4.20;99.90;;;;;;4948444;28;20491;-64
2022/01/20 12:39:22;;;;;;;1.75;0.90;;;4.20;99.90;;;;;;4947051;29;20024;-63
2022/01/20 12:41:58;;;;;;;1.10;0.90;;;4.00;99.90;;;;;;4948082;28;20064;-63
2022/01/20 12:44:41;;;;;;;1.77;1.08;;;4.20;99.90;;;;;;4947823;28;20546;-63
2022/01/20 12:47:07;;;;;;;0.70;0.70;;;4.30;99.90;;;;;;4944893;28;20504;-64
2022/01/20 12:49:32;;;;;;;3.25;1.33;;;4.30;99.90;;;;;;4948039;28;20023;-63
2022/01/20 12:51:58;;;;;;;2.85;1.10;;;4.10;99.90;;;;;;4951980;28;20106;-63
2022/01/20 12:54:30;;;;;;;1.70;1.00;;;4.10;99.90;;;;;;4947273;28;20426;-63
2022/01/20 12:57:02;;;;;;;1.02;0.88;;;4.00;99.90;;;;;;4944913;28;20047;-63
2022/01/20 12:59:37;;;;;;;2.08;0.77;;;4.10;99.90;;;;;;4932039;28;20054;-63
2022/01/20 13:02:19;;;;;;;5.55;1.38;;;4.20;99.90;;;;;;4950833;28;20054;-63
2022/01/20 13:04:45;;;;;;;2.85;1.40;;;4.30;99.90;;;;;;4949795;28;20054;-63
2022/01/20 13:07:15;;;;;;;1.65;1.10;;;4.50;99.90;;;;;;4943887;28;20020;-63
2022/01/20 13:09:48;;;;;;;0.77;0.77;;;4.50;99.90;;;;;;4947225;28;20109;-63
2022/01/20 13:12:17;;;;;;;0.63;0.63;;;4.70;99.90;;;;;;4950286;28;20526;-63
2022/01/20 13:14:50;;;;;;;1.95;1.35;;;4.90;99.90;;;;;;4943019;28;20019;-63
2022/01/20 13:17:23;;;;;;;1.30;0.93;;;5.00;99.90;;;;;;4944700;28;20043;-63
2022/01/20 13:19:51;;;;;;;0.80;0.80;;;4.90;99.90;;;;;;4942646;28;20034;-63
2022/01/20 13:22:23;;;;;;;5.43;1.25;;;4.70;99.90;;;;;;4946220;29;20031;-64
2022/01/20 13:24:49;;;;;;;1.23;1.05;;;4.70;99.90;;;;;;4946462;28;20074;-63
2022/01/20 13:27:15;;;;;;;4.65;1.20;;;4.70;99.90;;;;;;4945830;28;20412;-63
2022/01/20 13:29:47;;;;;;;0.70;0.70;;;4.70;99.90;;;;;;4948717;29;20034;-63
2022/01/20 13:32:13;;;;;;;1.95;1.15;;;4.70;99.90;;;;;;4945928;28;20039;-62
2022/01/20 13:34:39;;;;;;;1.67;1.15;;;4.50;99.90;;;;;;4924819;29;20505;-63
2022/01/20 13:37:13;;;;;;;2.92;1.00;;;4.50;99.90;;;;;;4949419;28;20073;-64
2022/01/20 13:39:41;;;;;;;1.13;0.85;;;4.50;99.90;;;;;;4930782;28;20085;-63
2022/01/20 13:42:22;;;;;;;0.90;0.85;;;4.60;99.90;;;;;;4947108;28;20106;-63
2022/01/20 13:45:12;;;;;;;3.45;1.48;;;4.40;99.90;;;;;;4948067;28;20464;-63
2022/01/20 13:47:47;;;;;;;0.75;0.73;;;4.10;99.90;;;;;;4952042;28;20041;-63
2022/01/20 13:50:17;;;;;;;1.05;0.95;;;4.00;99.90;;;;;;4949437;28;20027;-63
2022/01/20 13:52:43;;;;;;;2.40;1.13;;;3.80;99.90;;;;;;4946955;28;20074;-63
2022/01/20 13:55:18;;;;;;;4.47;1.40;;;3.60;99.90;;;;;;4941533;28;20019;-63
2022/01/20 13:57:44;;;;;;;1.67;1.33;;;3.40;99.90;;;;;;4941967;28;20031;-64
2022/01/20 14:00:13;;;;;;;0.73;0.73;;;3.50;99.90;;;;;;4948421;28;20032;-64
2022/01/20 14:02:40;;;;;;;0.93;0.85;;;3.60;99.90;;;;;;4955097;28;20027;-64
2022/01/20 14:05:06;;;;;;;1.48;1.08;;;3.70;99.90;;;;;;4947180;28;20448;-64
2022/01/20 14:07:33;;;;;;;7.28;1.58;;;3.70;99.90;;;;;;4949626;28;20145;-64
2022/01/20 14:09:58;;;;;;;2.80;0.70;;;3.70;99.90;;;;;;4943776;28;20083;-64
2022/01/20 14:12:24;;;;;;;2.80;1.08;;;3.60;99.90;;;;;;4951361;28;20392;-64